メインページ
METAR-TAF:

METAR-TAF

空港 :

エルマイラ / Corning, ニューヨーク, アメリカ合衆国

緯度: 42-09-23N, 経度: 076-54-10W, 海抜: 291m

現時点の気象観測

当レポートは59分前の08:53(UTC)に作成
西の風 7kt
気温 -6°C
湿度 58%
気圧 1016 hPa
視程: 16.1km
高度6000ftの雲はほとんどない
高度7000ftの曇り

METAR: KELM 230853Z AUTO 28007KT 10SM FEW060 OVC070 M06/M13 A3000 RMK AO2 SLP170 T10561133 51013

時間: 04:52 (09:52 UTC)

予報

当レポートは1時間19分前の08:33(UTC)に作成
予報は23日の 09時(UTC)から 24日の 06時(UTC)まで有効
西/北西の風 10kt、最大17ktの突風を伴う
視程: 10km
高度3500ftの千切れ雲あり
23日の 1400時(UTC)から
西/北西の風 13kt、最大19ktの突風を伴う
視程: 10km
高度2500ftの千切れ雲あり
23日の 2100時(UTC)から
北西の風 15kt、最大24ktの突風を伴う
視程: 10km
高度3500ftの曇り
24日の 0400時(UTC)から
北西の風 7kt
視程: 10km
高度2500ftの千切れ雲あり

TAF: KELM 230833Z 2309/2406 29010G17KT P6SM BKN035 FM231400 30013G19KT P6SM BKN025 FM232100 31015G24KT P6SM OVC035 FM240400 31007KT P6SM BKN025

4,000以上の空港の気象観測と天気予報(METAR報とTAF報)

利用可能な観測所は地図上に黄色い丸と赤い丸で示す。

丸の上にカーソルを重ねると観測所名を参照できる。

次にクリックすると気象観測と天気予報を参照できる。

マップの切り替え:黒色「×」印の緑ボタンをクリックして拡大、「-」印の緑ボタンをクリックして縮小、緑色の三角印をクリックして隣りの地図に切り替え


METAR-TAF: